createdAt,value
2023-04-01T00:00:13.000Z,9.041015625000004
2023-04-01T00:01:13.000Z,9.041015625000004
2023-04-01T00:02:13.000Z,10.974609375
2023-04-01T00:03:14.000Z,11.296874999999995
2023-04-01T00:04:14.000Z,9.36328125
2023-04-01T00:05:15.000Z,10.652343750000004
2023-04-01T00:06:15.000Z,9.041015625000004
2023-04-01T00:07:16.000Z,9.041015625000004
2023-04-01T00:08:16.000Z,9.685546874999995
2023-04-01T00:09:17.000Z,9.041015625000004
2023-04-01T00:10:17.000Z,9.041015625000004
2023-04-01T00:11:17.000Z,11.296874999999995
2023-04-01T00:12:18.000Z,9.36328125
2023-04-01T00:13:18.000Z,9.685546874999995
2023-04-01T00:14:19.000Z,9.36328125
2023-04-01T00:15:20.000Z,9.685546874999995
2023-04-01T00:16:20.000Z,11.296874999999995
2023-04-01T00:17:21.000Z,7.751953125
2023-04-01T00:18:21.000Z,10.652343750000004
2023-04-01T00:19:21.000Z,10.652343750000004
2023-04-01T00:20:22.000Z,8.396484375000002
2023-04-01T00:21:22.000Z,8.074218749999995
2023-04-01T00:22:23.000Z,9.36328125
2023-04-01T00:23:23.000Z,11.941406249999996
2023-04-01T00:24:29.000Z,10.974609375
2023-04-01T00:25:29.000Z,9.36328125
2023-04-01T00:26:30.000Z,9.041015625000004
2023-04-01T00:27:31.000Z,7.751953125
2023-04-01T00:28:31.000Z,8.718749999999996
2023-04-01T00:29:31.000Z,7.751953125
2023-04-01T00:30:32.000Z,7.4296875000000036
2023-04-01T00:31:32.000Z,9.685546874999995
2023-04-01T00:32:33.000Z,7.4296875000000036
2023-04-01T00:33:34.000Z,9.685546874999995
2023-04-01T00:34:34.000Z,8.718749999999996
2023-04-01T00:35:35.000Z,8.718749999999996
2023-04-01T00:36:35.000Z,10.652343750000004
2023-04-01T00:37:35.000Z,9.041015625000004
2023-04-01T00:38:36.000Z,8.718749999999996
2023-04-01T00:39:36.000Z,9.041015625000004
2023-04-01T00:40:37.000Z,10.974609375
2023-04-01T00:41:37.000Z,9.685546874999995
2023-04-01T00:42:38.000Z,10.974609375
2023-04-01T00:43:38.000Z,9.041015625000004
2023-04-01T00:44:39.000Z,9.041015625000004
2023-04-01T00:45:39.000Z,7.751953125
2023-04-01T00:46:40.000Z,10.007812500000002
2023-04-01T00:47:40.000Z,9.041015625000004
2023-04-01T00:48:41.000Z,7.107421874999997
2023-04-01T00:49:46.000Z,7.4296875000000036
2023-04-01T00:50:46.000Z,8.718749999999996
2023-04-01T00:51:47.000Z,8.718749999999996
2023-04-01T00:52:47.000Z,9.36328125
2023-04-01T00:53:48.000Z,6.785156250000002
2023-04-01T00:54:48.000Z,6.140625
2023-04-01T00:55:49.000Z,8.718749999999996
2023-04-01T00:56:49.000Z,9.685546874999995
2023-04-01T00:57:49.000Z,11.296874999999995
2023-04-01T00:58:50.000Z,10.652343750000004
2023-04-01T00:59:50.000Z,9.041015625000004
2023-04-01T01:00:51.000Z,10.974609375
2023-04-01T01:01:51.000Z,6.785156250000002
2023-04-01T01:02:56.000Z,11.619140625000002
2023-04-01T01:03:57.000Z,9.36328125
2023-04-01T01:04:57.000Z,9.041015625000004
2023-04-01T01:05:58.000Z,9.041015625000004
2023-04-01T01:06:58.000Z,11.296874999999995
2023-04-01T01:07:59.000Z,8.718749999999996
2023-04-01T01:08:59.000Z,6.785156250000002
2023-04-01T01:09:59.000Z,8.718749999999996
2023-04-01T01:11:00.000Z,9.36328125
2023-04-01T01:12:00.000Z,10.974609375
2023-04-01T01:13:01.000Z,8.074218749999995
2023-04-01T01:14:01.000Z,9.36328125
2023-04-01T01:15:01.000Z,10.974609375
2023-04-01T01:16:02.000Z,8.074218749999995
2023-04-01T01:17:02.000Z,8.396484375000002
2023-04-01T01:18:03.000Z,9.685546874999995
2023-04-01T01:19:03.000Z,8.074218749999995
2023-04-01T01:20:04.000Z,11.296874999999995
2023-04-01T01:21:04.000Z,9.685546874999995
2023-04-01T01:22:04.000Z,9.041015625000004
2023-04-01T01:23:05.000Z,8.718749999999996
2023-04-01T01:24:05.000Z,9.685546874999995
2023-04-01T01:25:06.000Z,10.007812500000002
2023-04-01T01:26:11.000Z,9.041015625000004
2023-04-01T01:27:12.000Z,6.785156250000002
2023-04-01T01:28:12.000Z,8.718749999999996
2023-04-01T01:29:12.000Z,9.36328125
2023-04-01T01:30:13.000Z,11.296874999999995
2023-04-01T01:31:13.000Z,9.041015625000004
2023-04-01T01:32:14.000Z,8.718749999999996
2023-04-01T01:33:14.000Z,8.718749999999996
2023-04-01T01:34:15.000Z,8.718749999999996
2023-04-01T01:35:15.000Z,7.4296875000000036
2023-04-01T01:36:15.000Z,9.36328125
2023-04-01T01:37:16.000Z,7.107421874999997
2023-04-01T01:38:16.000Z,8.718749999999996
2023-04-01T01:39:17.000Z,10.974609375
2023-04-01T01:40:17.000Z,9.041015625000004
2023-04-01T01:41:18.000Z,10.652343750000004
2023-04-01T01:42:18.000Z,9.36328125
2023-04-01T01:43:19.000Z,8.074218749999995
2023-04-01T01:44:19.000Z,9.36328125
2023-04-01T01:45:20.000Z,8.396484375000002
2023-04-01T01:46:20.000Z,9.685546874999995
2023-04-01T01:47:20.000Z,7.107421874999997
2023-04-01T01:48:21.000Z,11.296874999999995
2023-04-01T01:49:21.000Z,10.007812500000002
2023-04-01T01:50:22.000Z,9.041015625000004
2023-04-01T01:51:22.000Z,9.041015625000004
2023-04-01T01:52:23.000Z,8.718749999999996
2023-04-01T01:53:23.000Z,7.751953125
2023-04-01T01:54:23.000Z,7.4296875000000036
2023-04-01T01:55:24.000Z,7.4296875000000036
2023-04-01T01:56:24.000Z,6.785156250000002
2023-04-01T01:57:25.000Z,8.718749999999996
2023-04-01T01:58:25.000Z,10.007812500000002
2023-04-01T01:59:26.000Z,9.36328125
2023-04-01T02:00:26.000Z,7.751953125
2023-04-01T02:01:26.000Z,7.107421874999997
2023-04-01T02:02:27.000Z,9.36328125
2023-04-01T02:03:27.000Z,11.296874999999995
2023-04-01T02:04:28.000Z,8.718749999999996
2023-04-01T02:05:28.000Z,10.974609375
2023-04-01T02:06:29.000Z,9.36328125
2023-04-01T02:07:29.000Z,9.36328125
2023-04-01T02:08:30.000Z,11.296874999999995
2023-04-01T02:09:30.000Z,8.718749999999996
2023-04-01T02:10:30.000Z,8.718749999999996
2023-04-01T02:11:31.000Z,7.107421874999997
2023-04-01T02:12:31.000Z,8.396484375000002
2023-04-01T02:13:32.000Z,10.652343750000004
2023-04-01T02:14:32.000Z,9.041015625000004
2023-04-01T02:15:33.000Z,10.330078124999996
2023-04-01T02:16:33.000Z,8.718749999999996
2023-04-01T02:17:34.000Z,10.974609375
2023-04-01T02:18:34.000Z,10.974609375
2023-04-01T02:19:34.000Z,11.296874999999995
2023-04-01T02:20:35.000Z,9.36328125
2023-04-01T02:21:35.000Z,10.652343750000004
2023-04-01T02:22:36.000Z,8.718749999999996
2023-04-01T02:23:36.000Z,9.36328125
2023-04-01T02:24:36.000Z,10.974609375
2023-04-01T02:25:37.000Z,7.4296875000000036
2023-04-01T02:26:37.000Z,9.685546874999995
2023-04-01T02:27:38.000Z,9.041015625000004
2023-04-01T02:28:38.000Z,10.974609375
2023-04-01T02:29:39.000Z,10.652343750000004
2023-04-01T02:30:39.000Z,9.685546874999995
2023-04-01T02:31:39.000Z,6.785156250000002
2023-04-01T02:32:40.000Z,11.296874999999995
2023-04-01T02:33:40.000Z,10.652343750000004
2023-04-01T02:34:41.000Z,7.751953125
2023-04-01T02:35:41.000Z,9.685546874999995
2023-04-01T02:36:41.000Z,9.36328125
2023-04-01T02:37:42.000Z,9.36328125
2023-04-01T02:38:42.000Z,7.4296875000000036
2023-04-01T02:39:43.000Z,11.619140625000002
2023-04-01T02:40:43.000Z,9.041015625000004
2023-04-01T02:41:43.000Z,10.652343750000004
2023-04-01T02:42:44.000Z,10.974609375
2023-04-01T02:43:44.000Z,9.36328125
2023-04-01T02:44:45.000Z,8.718749999999996
2023-04-01T02:45:45.000Z,10.974609375
2023-04-01T02:46:46.000Z,9.041015625000004
2023-04-01T02:47:46.000Z,10.330078124999996
2023-04-01T02:48:47.000Z,9.685546874999995
2023-04-01T02:49:47.000Z,8.718749999999996
2023-04-01T02:50:48.000Z,9.685546874999995
2023-04-01T02:51:48.000Z,7.4296875000000036
2023-04-01T02:52:49.000Z,7.107421874999997
2023-04-01T02:53:49.000Z,9.041015625000004
2023-04-01T02:54:50.000Z,9.041015625000004
2023-04-01T02:55:50.000Z,7.751953125
2023-04-01T02:56:50.000Z,9.36328125
2023-04-01T02:57:51.000Z,9.041015625000004
2023-04-01T02:58:51.000Z,7.751953125
2023-04-01T02:59:52.000Z,9.36328125
2023-04-01T03:00:52.000Z,8.074218749999995
2023-04-01T03:01:53.000Z,7.107421874999997
2023-04-01T03:02:53.000Z,7.107421874999997
2023-04-01T03:03:53.000Z,9.36328125
2023-04-01T03:04:54.000Z,9.36328125
2023-04-01T03:05:54.000Z,11.296874999999995
2023-04-01T03:06:54.000Z,9.36328125
2023-04-01T03:07:55.000Z,9.36328125
2023-04-01T03:08:55.000Z,9.041015625000004
2023-04-01T03:09:56.000Z,9.36328125
2023-04-01T03:10:56.000Z,10.330078124999996
2023-04-01T03:11:56.000Z,8.396484375000002
2023-04-01T03:12:57.000Z,8.718749999999996
2023-04-01T03:13:57.000Z,9.36328125
2023-04-01T03:14:58.000Z,9.36328125
2023-04-01T03:15:58.000Z,8.396484375000002
2023-04-01T03:16:58.000Z,7.4296875000000036
2023-04-01T03:17:59.000Z,8.718749999999996
2023-04-01T03:18:59.000Z,9.041015625000004
2023-04-01T03:19:59.000Z,9.36328125
2023-04-01T03:21:00.000Z,10.330078124999996
2023-04-01T03:22:00.000Z,10.330078124999996
2023-04-01T03:23:01.000Z,9.36328125
2023-04-01T03:24:01.000Z,10.652343750000004
2023-04-01T03:25:01.000Z,10.974609375
2023-04-01T03:26:02.000Z,8.718749999999996
2023-04-01T03:27:02.000Z,8.718749999999996
2023-04-01T03:28:03.000Z,10.974609375
2023-04-01T03:29:03.000Z,8.074218749999995
2023-04-01T03:30:04.000Z,9.685546874999995
2023-04-01T03:31:04.000Z,8.718749999999996
2023-04-01T03:32:04.000Z,11.296874999999995
2023-04-01T03:33:05.000Z,8.074218749999995
2023-04-01T03:34:05.000Z,9.041015625000004
2023-04-01T03:35:06.000Z,8.074218749999995
2023-04-01T03:36:06.000Z,8.718749999999996
2023-04-01T03:37:07.000Z,10.652343750000004
2023-04-01T03:38:07.000Z,10.007812500000002
2023-04-01T03:39:08.000Z,8.074218749999995
2023-04-01T03:40:08.000Z,9.685546874999995
2023-04-01T03:41:09.000Z,9.041015625000004
2023-04-01T03:42:09.000Z,9.041015625000004
2023-04-01T03:43:09.000Z,7.4296875000000036
2023-04-01T03:44:10.000Z,9.041015625000004
2023-04-01T03:45:10.000Z,10.652343750000004
2023-04-01T03:46:11.000Z,8.074218749999995
2023-04-01T03:47:11.000Z,10.652343750000004
2023-04-01T03:48:11.000Z,8.718749999999996
2023-04-01T03:49:12.000Z,7.4296875000000036
2023-04-01T03:50:12.000Z,8.718749999999996
2023-04-01T03:51:13.000Z,6.785156250000002
2023-04-01T03:52:13.000Z,10.974609375
2023-04-01T03:53:13.000Z,8.718749999999996
2023-04-01T03:54:14.000Z,7.107421874999997
2023-04-01T03:55:14.000Z,8.718749999999996
2023-04-01T03:56:15.000Z,8.718749999999996
2023-04-01T03:57:20.000Z,10.652343750000004
2023-04-01T03:58:21.000Z,7.751953125
2023-04-01T03:59:21.000Z,10.974609375
2023-04-01T04:00:22.000Z,10.974609375
2023-04-01T04:01:22.000Z,9.041015625000004
2023-04-01T04:02:22.000Z,8.396484375000002
2023-04-01T04:03:23.000Z,9.685546874999995
2023-04-01T04:04:23.000Z,8.718749999999996
2023-04-01T04:05:24.000Z,9.36328125
2023-04-01T04:06:24.000Z,10.652343750000004
2023-04-01T04:07:30.000Z,10.330078124999996
2023-04-01T04:08:30.000Z,8.396484375000002
2023-04-01T04:09:31.000Z,8.718749999999996
2023-04-01T04:10:31.000Z,9.041015625000004
2023-04-01T04:11:32.000Z,8.396484375000002
2023-04-01T04:12:32.000Z,9.36328125
2023-04-01T04:13:33.000Z,11.941406249999996
2023-04-01T04:14:34.000Z,8.718749999999996
2023-04-01T04:15:35.000Z,7.107421874999997
2023-04-01T04:16:35.000Z,10.652343750000004
2023-04-01T04:17:36.000Z,8.718749999999996
2023-04-01T04:18:36.000Z,8.718749999999996
2023-04-01T04:19:37.000Z,8.718749999999996
2023-04-01T04:20:37.000Z,9.041015625000004
2023-04-01T04:21:38.000Z,9.041015625000004
2023-04-01T04:22:38.000Z,8.718749999999996
2023-04-01T04:23:39.000Z,8.396484375000002
2023-04-01T04:24:39.000Z,7.751953125
2023-04-01T04:25:40.000Z,7.107421874999997
2023-04-01T04:26:40.000Z,7.107421874999997
2023-04-01T04:27:40.000Z,8.718749999999996
2023-04-01T04:28:41.000Z,9.36328125
2023-04-01T04:29:41.000Z,11.941406249999996
2023-04-01T04:30:42.000Z,9.36328125
2023-04-01T04:31:42.000Z,9.041015625000004
2023-04-01T04:32:43.000Z,9.36328125
2023-04-01T04:33:43.000Z,8.718749999999996
2023-04-01T04:34:43.000Z,6.140625
2023-04-01T04:35:44.000Z,9.36328125
2023-04-01T04:36:44.000Z,7.751953125
2023-04-01T04:37:45.000Z,7.107421874999997
2023-04-01T04:38:45.000Z,10.652343750000004
2023-04-01T04:39:46.000Z,8.718749999999996
2023-04-01T04:40:46.000Z,8.074218749999995
2023-04-01T04:41:47.000Z,8.718749999999996
2023-04-01T04:42:48.000Z,10.652343750000004
2023-04-01T04:43:48.000Z,7.4296875000000036
2023-04-01T04:44:49.000Z,8.074218749999995
2023-04-01T04:45:49.000Z,9.041015625000004
2023-04-01T04:46:50.000Z,9.36328125
2023-04-01T04:47:50.000Z,9.36328125
2023-04-01T04:48:50.000Z,8.396484375000002
2023-04-01T04:49:51.000Z,9.36328125
2023-04-01T04:50:51.000Z,3.240234374999995
2023-04-01T04:51:52.000Z,7.107421874999997
2023-04-01T04:52:53.000Z,6.785156250000002
2023-04-01T04:53:53.000Z,8.396484375000002
2023-04-01T04:54:53.000Z,8.074218749999995
2023-04-01T04:55:54.000Z,8.718749999999996
2023-04-01T04:56:55.000Z,10.652343750000004
2023-04-01T04:57:55.000Z,8.718749999999996
2023-04-01T04:58:56.000Z,10.007812500000002
2023-04-01T04:59:56.000Z,7.107421874999997
2023-04-01T05:00:57.000Z,8.718749999999996
2023-04-01T05:01:57.000Z,9.041015625000004
2023-04-01T05:02:58.000Z,9.041015625000004
2023-04-01T05:03:58.000Z,9.36328125
2023-04-01T05:04:59.000Z,8.074218749999995
2023-04-01T05:05:59.000Z,8.396484375000002
2023-04-01T05:06:59.000Z,8.396484375000002
2023-04-01T05:08:00.000Z,8.718749999999996
2023-04-01T05:09:00.000Z,7.751953125
2023-04-01T05:10:01.000Z,8.718749999999996
2023-04-01T05:11:01.000Z,8.718749999999996
2023-04-01T05:12:02.000Z,7.751953125
2023-04-01T05:13:02.000Z,8.396484375000002
2023-04-01T05:14:03.000Z,9.041015625000004
2023-04-01T05:15:04.000Z,9.041015625000004
2023-04-01T05:16:04.000Z,9.041015625000004
2023-04-01T05:17:05.000Z,9.041015625000004
2023-04-01T05:18:05.000Z,7.4296875000000036
2023-04-01T05:19:05.000Z,9.041015625000004
2023-04-01T05:20:06.000Z,10.330078124999996
2023-04-01T05:21:06.000Z,8.718749999999996
2023-04-01T05:22:07.000Z,9.36328125
2023-04-01T05:23:07.000Z,8.718749999999996
2023-04-01T05:24:08.000Z,9.36328125
2023-04-01T05:25:08.000Z,8.718749999999996
2023-04-01T05:26:09.000Z,9.041015625000004
2023-04-01T05:27:09.000Z,9.685546874999995
2023-04-01T05:28:10.000Z,9.041015625000004
2023-04-01T05:29:10.000Z,8.396484375000002
2023-04-01T05:30:11.000Z,9.36328125
2023-04-01T05:31:11.000Z,8.074218749999995
2023-04-01T05:32:12.000Z,10.007812500000002
2023-04-01T05:33:12.000Z,8.396484375000002
2023-04-01T05:34:13.000Z,10.007812500000002
2023-04-01T05:35:13.000Z,9.36328125
2023-04-01T05:36:14.000Z,8.718749999999996
2023-04-01T05:37:14.000Z,10.330078124999996
2023-04-01T05:38:15.000Z,9.36328125
2023-04-01T05:39:20.000Z,9.041015625000004
2023-04-01T05:40:20.000Z,9.041015625000004
2023-04-01T05:41:21.000Z,9.041015625000004
2023-04-01T05:42:21.000Z,7.751953125
2023-04-01T05:43:22.000Z,9.36328125
2023-04-01T05:44:22.000Z,7.751953125
2023-04-01T05:45:22.000Z,9.36328125
2023-04-01T05:46:23.000Z,7.107421874999997
2023-04-01T05:47:23.000Z,10.652343750000004
2023-04-01T05:48:24.000Z,11.619140625000002
2023-04-01T05:49:24.000Z,10.007812500000002
2023-04-01T05:50:25.000Z,9.041015625000004
2023-04-01T05:51:26.000Z,7.4296875000000036
2023-04-01T05:52:26.000Z,10.652343750000004
2023-04-01T05:53:27.000Z,9.36328125
2023-04-01T05:54:27.000Z,8.074218749999995
2023-04-01T05:55:28.000Z,8.396484375000002
2023-04-01T05:56:28.000Z,11.941406249999996
2023-04-01T05:57:28.000Z,9.041015625000004
2023-04-01T05:58:29.000Z,9.041015625000004
2023-04-01T05:59:29.000Z,9.36328125
2023-04-01T06:00:30.000Z,9.685546874999995
2023-04-01T06:01:30.000Z,9.36328125
2023-04-01T06:02:31.000Z,9.685546874999995
2023-04-01T06:03:31.000Z,8.718749999999996
2023-04-01T06:04:32.000Z,10.007812500000002
2023-04-01T06:05:32.000Z,9.685546874999995
2023-04-01T06:06:33.000Z,8.718749999999996
2023-04-01T06:07:33.000Z,12.263671875000004
2023-04-01T06:08:34.000Z,9.685546874999995
2023-04-01T06:09:34.000Z,9.685546874999995
2023-04-01T06:10:35.000Z,9.685546874999995
2023-04-01T06:11:35.000Z,9.685546874999995
2023-04-01T06:12:36.000Z,9.041015625000004
2023-04-01T06:13:36.000Z,10.007812500000002
2023-04-01T06:14:36.000Z,8.718749999999996
2023-04-01T06:15:37.000Z,13.230468750000002
2023-04-01T06:16:37.000Z,9.685546874999995
2023-04-01T06:17:38.000Z,10.007812500000002
2023-04-01T06:18:38.000Z,10.007812500000002
2023-04-01T06:19:39.000Z,10.007812500000002
2023-04-01T06:20:39.000Z,10.007812500000002
2023-04-01T06:21:40.000Z,10.652343750000004
2023-04-01T06:22:40.000Z,10.974609375
2023-04-01T06:23:41.000Z,10.007812500000002
2023-04-01T06:24:41.000Z,8.718749999999996
2023-04-01T06:25:42.000Z,10.007812500000002
2023-04-01T06:26:42.000Z,10.007812500000002
2023-04-01T06:27:42.000Z,10.007812500000002
2023-04-01T06:28:43.000Z,10.330078124999996
2023-04-01T06:29:43.000Z,10.652343750000004
2023-04-01T06:30:44.000Z,9.685546874999995
2023-04-01T06:31:44.000Z,9.041015625000004
2023-04-01T06:32:45.000Z,11.619140625000002
2023-04-01T06:33:45.000Z,10.007812500000002
2023-04-01T06:34:46.000Z,10.652343750000004
2023-04-01T06:35:46.000Z,8.718749999999996
2023-04-01T06:36:47.000Z,11.296874999999995
2023-04-01T06:37:47.000Z,8.718749999999996
2023-04-01T06:38:48.000Z,11.619140625000002
2023-04-01T06:39:48.000Z,8.718749999999996
2023-04-01T06:40:48.000Z,12.5859375
2023-04-01T06:41:49.000Z,11.941406249999996
2023-04-01T06:42:49.000Z,10.330078124999996
2023-04-01T06:43:54.000Z,10.974609375
2023-04-01T06:44:55.000Z,11.296874999999995
2023-04-01T06:45:55.000Z,10.652343750000004
2023-04-01T06:46:56.000Z,10.652343750000004
2023-04-01T06:47:56.000Z,10.330078124999996
2023-04-01T06:48:57.000Z,10.652343750000004
2023-04-01T06:49:57.000Z,10.974609375
2023-04-01T06:50:57.000Z,10.652343750000004
2023-04-01T06:51:58.000Z,9.36328125
2023-04-01T06:52:58.000Z,10.652343750000004
2023-04-01T06:53:59.000Z,10.330078124999996
2023-04-01T06:54:59.000Z,12.908203124999995
2023-04-01T06:56:00.000Z,10.974609375
2023-04-01T06:57:00.000Z,10.652343750000004
2023-04-01T06:58:01.000Z,12.908203124999995
2023-04-01T06:59:01.000Z,10.652343750000004
2023-04-01T07:00:02.000Z,10.652343750000004
2023-04-01T07:01:02.000Z,12.908203124999995
2023-04-01T07:02:03.000Z,11.296874999999995
2023-04-01T07:03:04.000Z,11.296874999999995
2023-04-01T07:04:04.000Z,9.685546874999995
2023-04-01T07:05:05.000Z,10.974609375
2023-04-01T07:06:05.000Z,11.296874999999995
2023-04-01T07:07:06.000Z,11.619140625000002
2023-04-01T07:08:06.000Z,10.652343750000004
2023-04-01T07:09:07.000Z,11.619140625000002
2023-04-01T07:10:07.000Z,11.619140625000002
2023-04-01T07:11:08.000Z,10.974609375
2023-04-01T07:12:08.000Z,11.619140625000002
2023-04-01T07:13:09.000Z,11.619140625000002
2023-04-01T07:14:09.000Z,11.296874999999995
2023-04-01T07:15:10.000Z,11.941406249999996
2023-04-01T07:16:10.000Z,12.263671875000004
2023-04-01T07:17:10.000Z,11.619140625000002
2023-04-01T07:18:11.000Z,11.941406249999996
2023-04-01T07:19:11.000Z,10.652343750000004
2023-04-01T07:20:12.000Z,12.263671875000004
2023-04-01T07:21:12.000Z,12.263671875000004
2023-04-01T07:22:13.000Z,11.619140625000002
2023-04-01T07:23:13.000Z,11.941406249999996
2023-04-01T07:24:14.000Z,11.941406249999996
2023-04-01T07:25:14.000Z,11.619140625000002
2023-04-01T07:26:14.000Z,11.941406249999996
2023-04-01T07:27:15.000Z,11.619140625000002
2023-04-01T07:28:15.000Z,11.941406249999996
2023-04-01T07:29:16.000Z,12.263671875000004
2023-04-01T07:30:16.000Z,11.296874999999995
2023-04-01T07:31:17.000Z,12.5859375
2023-04-01T07:32:17.000Z,12.263671875000004
2023-04-01T07:33:18.000Z,12.263671875000004
2023-04-01T07:34:18.000Z,13.230468750000002
2023-04-01T07:35:18.000Z,11.619140625000002
2023-04-01T07:36:19.000Z,10.974609375
2023-04-01T07:37:19.000Z,11.941406249999996
2023-04-01T07:38:20.000Z,13.230468750000002
2023-04-01T07:39:21.000Z,11.619140625000002
2023-04-01T07:40:22.000Z,12.263671875000004
2023-04-01T07:41:22.000Z,11.941406249999996
2023-04-01T07:42:23.000Z,12.263671875000004
2023-04-01T07:43:23.000Z,11.941406249999996
2023-04-01T07:44:23.000Z,13.552734374999996
2023-04-01T07:45:24.000Z,11.941406249999996
2023-04-01T07:46:24.000Z,11.619140625000002
2023-04-01T07:47:25.000Z,11.619140625000002
2023-04-01T07:48:25.000Z,11.619140625000002
2023-04-01T07:49:26.000Z,11.619140625000002
2023-04-01T07:50:26.000Z,12.263671875000004
2023-04-01T07:51:26.000Z,11.941406249999996
2023-04-01T07:52:27.000Z,11.619140625000002
2023-04-01T07:53:27.000Z,12.908203124999995
2023-04-01T07:54:28.000Z,11.941406249999996
2023-04-01T07:55:28.000Z,12.263671875000004
2023-04-01T07:56:29.000Z,12.5859375
2023-04-01T07:57:29.000Z,10.330078124999996
2023-04-01T07:58:29.000Z,12.908203124999995
2023-04-01T07:59:30.000Z,12.263671875000004
2023-04-01T08:00:30.000Z,11.296874999999995
2023-04-01T08:01:31.000Z,11.941406249999996
2023-04-01T08:02:31.000Z,11.296874999999995
2023-04-01T08:03:32.000Z,11.296874999999995
2023-04-01T08:04:32.000Z,13.230468750000002
2023-04-01T08:05:33.000Z,11.619140625000002
2023-04-01T08:06:33.000Z,10.007812500000002
2023-04-01T08:07:34.000Z,11.941406249999996
2023-04-01T08:08:34.000Z,12.263671875000004
2023-04-01T08:09:34.000Z,12.5859375
2023-04-01T08:10:35.000Z,11.296874999999995
2023-04-01T08:11:35.000Z,11.619140625000002
2023-04-01T08:12:36.000Z,12.908203124999995
2023-04-01T08:13:36.000Z,11.941406249999996
2023-04-01T08:14:37.000Z,11.941406249999996
2023-04-01T08:15:37.000Z,11.296874999999995
2023-04-01T08:16:38.000Z,11.941406249999996
2023-04-01T08:17:38.000Z,11.619140625000002
2023-04-01T08:18:39.000Z,10.974609375
2023-04-01T08:19:39.000Z,11.619140625000002
2023-04-01T08:20:40.000Z,11.941406249999996
2023-04-01T08:21:40.000Z,11.941406249999996
2023-04-01T08:22:40.000Z,11.941406249999996
2023-04-01T08:23:41.000Z,12.263671875000004
2023-04-01T08:24:41.000Z,12.5859375
2023-04-01T08:25:42.000Z,13.230468750000002
2023-04-01T08:26:42.000Z,13.552734374999996
2023-04-01T08:27:43.000Z,13.230468750000002
2023-04-01T08:28:43.000Z,12.5859375
2023-04-01T08:29:43.000Z,11.941406249999996
2023-04-01T08:30:44.000Z,12.263671875000004
2023-04-01T08:31:44.000Z,10.974609375
2023-04-01T08:32:45.000Z,12.5859375
2023-04-01T08:33:45.000Z,12.263671875000004
2023-04-01T08:34:46.000Z,13.874999999999993
2023-04-01T08:35:46.000Z,12.908203124999995
2023-04-01T08:36:47.000Z,12.263671875000004
2023-04-01T08:37:47.000Z,12.908203124999995
2023-04-01T08:38:48.000Z,11.941406249999996
2023-04-01T08:39:48.000Z,11.296874999999995
2023-04-01T08:40:48.000Z,14.197265625
2023-04-01T08:41:49.000Z,13.874999999999993
2023-04-01T08:42:49.000Z,12.908203124999995
2023-04-01T08:43:50.000Z,11.296874999999995
2023-04-01T08:44:50.000Z,12.908203124999995
2023-04-01T08:45:51.000Z,13.552734374999996
2023-04-01T08:46:51.000Z,10.330078124999996
2023-04-01T08:47:52.000Z,12.5859375
2023-04-01T08:48:52.000Z,12.263671875000004
2023-04-01T08:49:53.000Z,12.5859375
2023-04-01T08:50:53.000Z,10.652343750000004
2023-04-01T08:51:53.000Z,11.296874999999995
2023-04-01T08:52:54.000Z,12.263671875000004
2023-04-01T08:53:54.000Z,12.263671875000004
2023-04-01T08:54:55.000Z,15.164062499999996
2023-04-01T08:55:55.000Z,12.5859375
2023-04-01T08:56:55.000Z,13.552734374999996
2023-04-01T08:57:56.000Z,12.263671875000004
2023-04-01T08:58:56.000Z,12.263671875000004
2023-04-01T08:59:57.000Z,12.5859375
2023-04-01T09:00:57.000Z,12.263671875000004
2023-04-01T09:01:58.000Z,13.874999999999993
2023-04-01T09:02:58.000Z,13.874999999999993
2023-04-01T09:03:59.000Z,11.296874999999995
2023-04-01T09:04:59.000Z,12.908203124999995
2023-04-01T09:06:00.000Z,11.941406249999996
2023-04-01T09:07:00.000Z,11.296874999999995
2023-04-01T09:08:00.000Z,14.519531249999995
2023-04-01T09:09:01.000Z,12.5859375
2023-04-01T09:10:01.000Z,11.941406249999996
2023-04-01T09:11:02.000Z,12.908203124999995
2023-04-01T09:12:02.000Z,12.908203124999995
2023-04-01T09:13:02.000Z,14.197265625
2023-04-01T09:14:03.000Z,13.874999999999993
2023-04-01T09:15:04.000Z,13.552734374999996
2023-04-01T09:16:04.000Z,13.552734374999996
2023-04-01T09:17:04.000Z,13.230468750000002
2023-04-01T09:18:05.000Z,13.552734374999996
2023-04-01T09:19:05.000Z,13.874999999999993
2023-04-01T09:20:06.000Z,13.874999999999993
2023-04-01T09:21:06.000Z,12.908203124999995
2023-04-01T09:22:07.000Z,13.874999999999993
2023-04-01T09:23:07.000Z,14.519531249999995
2023-04-01T09:24:08.000Z,13.874999999999993
2023-04-01T09:25:08.000Z,14.519531249999995
2023-04-01T09:26:09.000Z,14.519531249999995
2023-04-01T09:27:09.000Z,14.841796875000002
2023-04-01T09:28:09.000Z,14.841796875000002
2023-04-01T09:29:10.000Z,13.874999999999993
2023-04-01T09:30:10.000Z,14.197265625
2023-04-01T09:31:11.000Z,13.230468750000002
2023-04-01T09:32:11.000Z,13.874999999999993
2023-04-01T09:33:11.000Z,15.164062499999996